sensor_id;sensor_type;location;lat;lon;timestamp;P1;durP1;ratioP1;P2;durP2;ratioP2
62523;SDS011;53689;56.878;60.672;2024-01-10T00:02:16;8.20;;;5.25;;
62523;SDS011;53689;56.878;60.672;2024-01-10T00:04:44;9.45;;;6.00;;
62523;SDS011;53689;56.878;60.672;2024-01-10T00:07:12;8.65;;;5.50;;
62523;SDS011;53689;56.878;60.672;2024-01-10T00:09:41;7.75;;;4.95;;
62523;SDS011;53689;56.878;60.672;2024-01-10T00:12:09;8.07;;;5.10;;
62523;SDS011;53689;56.878;60.672;2024-01-10T00:14:37;8.00;;;4.82;;
62523;SDS011;53689;56.878;60.672;2024-01-10T00:17:05;10.00;;;5.40;;
62523;SDS011;53689;56.878;60.672;2024-01-10T00:19:33;7.22;;;4.75;;
62523;SDS011;53689;56.878;60.672;2024-01-10T00:22:01;8.90;;;5.38;;
62523;SDS011;53689;56.878;60.672;2024-01-10T00:24:29;9.15;;;5.57;;
62523;SDS011;53689;56.878;60.672;2024-01-10T00:26:58;7.40;;;5.00;;
62523;SDS011;53689;56.878;60.672;2024-01-10T00:29:26;9.85;;;5.57;;
62523;SDS011;53689;56.878;60.672;2024-01-10T00:31:54;7.80;;;5.13;;
62523;SDS011;53689;56.878;60.672;2024-01-10T00:34:22;9.07;;;5.22;;
62523;SDS011;53689;56.878;60.672;2024-01-10T00:36:50;8.95;;;5.35;;
62523;SDS011;53689;56.878;60.672;2024-01-10T00:39:17;9.20;;;5.85;;
62523;SDS011;53689;56.878;60.672;2024-01-10T00:41:45;8.90;;;5.75;;
62523;SDS011;53689;56.878;60.672;2024-01-10T00:44:15;7.72;;;4.88;;
62523;SDS011;53689;56.878;60.672;2024-01-10T00:46:42;7.85;;;5.07;;
62523;SDS011;53689;56.878;60.672;2024-01-10T00:49:10;8.70;;;5.40;;
62523;SDS011;53689;56.878;60.672;2024-01-10T00:51:38;8.88;;;5.30;;
62523;SDS011;53689;56.878;60.672;2024-01-10T00:54:06;9.38;;;5.43;;
62523;SDS011;53689;56.878;60.672;2024-01-10T00:56:36;8.40;;;5.07;;
62523;SDS011;53689;56.878;60.672;2024-01-10T00:59:05;8.80;;;5.35;;
62523;SDS011;53689;56.878;60.672;2024-01-10T01:01:34;8.40;;;5.65;;
62523;SDS011;53689;56.878;60.672;2024-01-10T01:04:02;7.55;;;5.18;;
62523;SDS011;53689;56.878;60.672;2024-01-10T01:06:30;7.40;;;4.90;;
62523;SDS011;53689;56.878;60.672;2024-01-10T01:08:58;9.43;;;5.60;;
62523;SDS011;53689;56.878;60.672;2024-01-10T01:11:25;8.73;;;5.45;;
62523;SDS011;53689;56.878;60.672;2024-01-10T01:13:53;8.95;;;5.30;;
62523;SDS011;53689;56.878;60.672;2024-01-10T01:16:21;8.10;;;5.00;;
62523;SDS011;53689;56.878;60.672;2024-01-10T01:18:51;7.35;;;5.10;;
62523;SDS011;53689;56.878;60.672;2024-01-10T01:21:19;8.63;;;5.28;;
62523;SDS011;53689;56.878;60.672;2024-01-10T01:23:47;7.35;;;5.03;;
62523;SDS011;53689;56.878;60.672;2024-01-10T01:26:15;7.75;;;5.13;;
62523;SDS011;53689;56.878;60.672;2024-01-10T01:28:43;8.95;;;5.70;;
62523;SDS011;53689;56.878;60.672;2024-01-10T01:31:11;9.13;;;5.35;;
62523;SDS011;53689;56.878;60.672;2024-01-10T01:33:39;7.60;;;5.15;;
62523;SDS011;53689;56.878;60.672;2024-01-10T01:36:08;7.30;;;4.80;;
62523;SDS011;53689;56.878;60.672;2024-01-10T01:38:36;8.82;;;5.57;;
62523;SDS011;53689;56.878;60.672;2024-01-10T01:41:04;9.35;;;5.60;;
62523;SDS011;53689;56.878;60.672;2024-01-10T01:43:32;7.85;;;5.15;;
62523;SDS011;53689;56.878;60.672;2024-01-10T01:46:00;7.00;;;4.70;;
62523;SDS011;53689;56.878;60.672;2024-01-10T01:48:29;11.40;;;6.07;;
62523;SDS011;53689;56.878;60.672;2024-01-10T01:51:00;9.20;;;5.40;;
62523;SDS011;53689;56.878;60.672;2024-01-10T01:53:33;8.02;;;5.13;;
62523;SDS011;53689;56.878;60.672;2024-01-10T01:56:06;9.25;;;5.95;;
62523;SDS011;53689;56.878;60.672;2024-01-10T01:58:35;9.05;;;5.40;;
62523;SDS011;53689;56.878;60.672;2024-01-10T02:01:04;8.23;;;5.43;;
62523;SDS011;53689;56.878;60.672;2024-01-10T02:03:32;8.03;;;5.13;;
62523;SDS011;53689;56.878;60.672;2024-01-10T02:06:01;9.15;;;5.68;;
62523;SDS011;53689;56.878;60.672;2024-01-10T02:08:29;9.20;;;5.95;;
62523;SDS011;53689;56.878;60.672;2024-01-10T02:11:00;8.63;;;5.90;;
62523;SDS011;53689;56.878;60.672;2024-01-10T02:13:29;9.60;;;5.60;;
62523;SDS011;53689;56.878;60.672;2024-01-10T02:15:57;9.10;;;5.40;;
62523;SDS011;53689;56.878;60.672;2024-01-10T02:18:26;8.97;;;5.20;;
62523;SDS011;53689;56.878;60.672;2024-01-10T02:20:54;7.35;;;5.25;;
62523;SDS011;53689;56.878;60.672;2024-01-10T02:23:22;8.35;;;5.22;;
62523;SDS011;53689;56.878;60.672;2024-01-10T02:25:52;8.07;;;5.72;;
62523;SDS011;53689;56.878;60.672;2024-01-10T02:28:20;9.38;;;5.93;;
62523;SDS011;53689;56.878;60.672;2024-01-10T02:30:47;10.18;;;6.30;;
62523;SDS011;53689;56.878;60.672;2024-01-10T02:33:15;10.73;;;6.60;;
62523;SDS011;53689;56.878;60.672;2024-01-10T02:35:43;10.70;;;6.38;;
62523;SDS011;53689;56.878;60.672;2024-01-10T02:38:11;12.50;;;6.60;;
62523;SDS011;53689;56.878;60.672;2024-01-10T02:40:39;10.30;;;7.30;;
62523;SDS011;53689;56.878;60.672;2024-01-10T02:43:08;10.40;;;7.03;;
62523;SDS011;53689;56.878;60.672;2024-01-10T02:45:36;10.02;;;6.20;;
62523;SDS011;53689;56.878;60.672;2024-01-10T02:48:04;11.48;;;7.80;;
62523;SDS011;53689;56.878;60.672;2024-01-10T02:50:32;9.05;;;6.53;;
62523;SDS011;53689;56.878;60.672;2024-01-10T02:53:00;10.77;;;7.05;;
62523;SDS011;53689;56.878;60.672;2024-01-10T02:55:28;13.13;;;9.57;;
62523;SDS011;53689;56.878;60.672;2024-01-10T02:57:56;12.98;;;9.00;;
62523;SDS011;53689;56.878;60.672;2024-01-10T03:00:26;13.73;;;7.97;;
62523;SDS011;53689;56.878;60.672;2024-01-10T03:02:53;11.27;;;7.63;;
62523;SDS011;53689;56.878;60.672;2024-01-10T03:05:21;11.57;;;7.57;;
62523;SDS011;53689;56.878;60.672;2024-01-10T03:07:49;10.68;;;7.72;;
62523;SDS011;53689;56.878;60.672;2024-01-10T03:10:17;11.10;;;7.15;;
62523;SDS011;53689;56.878;60.672;2024-01-10T03:12:45;12.85;;;7.68;;
62523;SDS011;53689;56.878;60.672;2024-01-10T03:15:13;13.02;;;7.88;;
62523;SDS011;53689;56.878;60.672;2024-01-10T03:17:49;10.23;;;6.78;;
62523;SDS011;53689;56.878;60.672;2024-01-10T03:20:17;11.35;;;7.90;;
62523;SDS011;53689;56.878;60.672;2024-01-10T03:22:45;12.27;;;7.85;;
62523;SDS011;53689;56.878;60.672;2024-01-10T03:25:13;11.45;;;8.00;;
62523;SDS011;53689;56.878;60.672;2024-01-10T03:27:41;14.02;;;8.73;;
62523;SDS011;53689;56.878;60.672;2024-01-10T03:30:09;12.10;;;8.13;;
62523;SDS011;53689;56.878;60.672;2024-01-10T03:32:37;10.55;;;7.70;;
62523;SDS011;53689;56.878;60.672;2024-01-10T03:35:08;11.88;;;7.70;;
62523;SDS011;53689;56.878;60.672;2024-01-10T03:37:36;12.32;;;8.40;;
62523;SDS011;53689;56.878;60.672;2024-01-10T03:40:04;11.90;;;7.75;;
62523;SDS011;53689;56.878;60.672;2024-01-10T03:42:33;14.90;;;10.15;;
62523;SDS011;53689;56.878;60.672;2024-01-10T03:45:02;17.92;;;11.27;;
62523;SDS011;53689;56.878;60.672;2024-01-10T03:47:30;15.10;;;9.07;;
62523;SDS011;53689;56.878;60.672;2024-01-10T03:49:58;17.13;;;10.57;;
62523;SDS011;53689;56.878;60.672;2024-01-10T03:52:28;16.20;;;10.25;;
62523;SDS011;53689;56.878;60.672;2024-01-10T03:54:56;16.98;;;11.07;;
62523;SDS011;53689;56.878;60.672;2024-01-10T03:57:23;17.88;;;10.93;;
62523;SDS011;53689;56.878;60.672;2024-01-10T03:59:52;13.98;;;10.00;;
62523;SDS011;53689;56.878;60.672;2024-01-10T04:02:19;15.10;;;10.20;;
62523;SDS011;53689;56.878;60.672;2024-01-10T04:04:48;18.33;;;12.15;;
62523;SDS011;53689;56.878;60.672;2024-01-10T04:07:17;19.98;;;12.05;;
62523;SDS011;53689;56.878;60.672;2024-01-10T04:09:46;20.13;;;12.10;;
62523;SDS011;53689;56.878;60.672;2024-01-10T04:12:14;22.10;;;12.38;;
62523;SDS011;53689;56.878;60.672;2024-01-10T04:14:42;19.20;;;10.98;;
62523;SDS011;53689;56.878;60.672;2024-01-10T04:17:10;18.30;;;11.30;;
62523;SDS011;53689;56.878;60.672;2024-01-10T04:19:38;20.48;;;13.10;;
62523;SDS011;53689;56.878;60.672;2024-01-10T04:22:06;19.23;;;12.75;;
62523;SDS011;53689;56.878;60.672;2024-01-10T04:24:34;23.17;;;14.20;;
62523;SDS011;53689;56.878;60.672;2024-01-10T04:27:03;19.95;;;13.27;;
62523;SDS011;53689;56.878;60.672;2024-01-10T04:29:35;22.33;;;14.05;;
62523;SDS011;53689;56.878;60.672;2024-01-10T04:32:03;22.98;;;13.93;;
62523;SDS011;53689;56.878;60.672;2024-01-10T04:34:31;22.53;;;15.20;;
62523;SDS011;53689;56.878;60.672;2024-01-10T04:36:59;27.75;;;15.38;;
62523;SDS011;53689;56.878;60.672;2024-01-10T04:39:27;21.50;;;13.32;;
62523;SDS011;53689;56.878;60.672;2024-01-10T04:41:55;23.25;;;14.40;;
62523;SDS011;53689;56.878;60.672;2024-01-10T04:44:28;25.85;;;15.10;;
62523;SDS011;53689;56.878;60.672;2024-01-10T04:46:58;21.33;;;13.80;;
62523;SDS011;53689;56.878;60.672;2024-01-10T04:49:26;23.83;;;15.27;;
62523;SDS011;53689;56.878;60.672;2024-01-10T04:51:54;23.15;;;15.32;;
62523;SDS011;53689;56.878;60.672;2024-01-10T04:54:22;23.10;;;14.63;;
62523;SDS011;53689;56.878;60.672;2024-01-10T04:56:50;26.08;;;15.25;;
62523;SDS011;53689;56.878;60.672;2024-01-10T04:59:18;22.25;;;13.77;;
62523;SDS011;53689;56.878;60.672;2024-01-10T05:01:48;26.50;;;16.08;;
62523;SDS011;53689;56.878;60.672;2024-01-10T05:04:22;24.83;;;15.52;;
62523;SDS011;53689;56.878;60.672;2024-01-10T05:07:09;28.75;;;16.52;;
62523;SDS011;53689;56.878;60.672;2024-01-10T05:09:37;28.63;;;18.02;;
62523;SDS011;53689;56.878;60.672;2024-01-10T05:12:05;25.52;;;15.43;;
62523;SDS011;53689;56.878;60.672;2024-01-10T05:14:34;25.85;;;15.13;;
62523;SDS011;53689;56.878;60.672;2024-01-10T05:17:04;34.50;;;19.60;;
62523;SDS011;53689;56.878;60.672;2024-01-10T05:19:32;24.33;;;16.02;;
62523;SDS011;53689;56.878;60.672;2024-01-10T05:22:00;28.38;;;15.75;;
62523;SDS011;53689;56.878;60.672;2024-01-10T05:24:30;29.70;;;17.38;;
62523;SDS011;53689;56.878;60.672;2024-01-10T05:26:59;31.48;;;19.05;;
62523;SDS011;53689;56.878;60.672;2024-01-10T05:29:27;67.10;;;23.05;;
62523;SDS011;53689;56.878;60.672;2024-01-10T05:31:55;40.70;;;19.52;;
62523;SDS011;53689;56.878;60.672;2024-01-10T05:34:24;39.75;;;19.88;;
62523;SDS011;53689;56.878;60.672;2024-01-10T05:36:52;59.17;;;23.63;;
62523;SDS011;53689;56.878;60.672;2024-01-10T05:39:20;46.45;;;22.42;;
62523;SDS011;53689;56.878;60.672;2024-01-10T05:41:48;60.50;;;22.50;;
62523;SDS011;53689;56.878;60.672;2024-01-10T05:44:16;70.38;;;25.05;;
62523;SDS011;53689;56.878;60.672;2024-01-10T05:46:45;79.53;;;25.50;;
62523;SDS011;53689;56.878;60.672;2024-01-10T05:49:12;72.55;;;25.02;;
62523;SDS011;53689;56.878;60.672;2024-01-10T05:51:42;133.98;;;43.60;;
62523;SDS011;53689;56.878;60.672;2024-01-10T05:54:10;83.13;;;26.88;;
62523;SDS011;53689;56.878;60.672;2024-01-10T05:56:38;75.20;;;30.83;;
62523;SDS011;53689;56.878;60.672;2024-01-10T05:59:06;81.43;;;29.58;;
62523;SDS011;53689;56.878;60.672;2024-01-10T06:01:35;75.90;;;25.50;;
62523;SDS011;53689;56.878;60.672;2024-01-10T06:04:03;57.10;;;23.13;;
62523;SDS011;53689;56.878;60.672;2024-01-10T06:06:31;71.50;;;27.17;;
62523;SDS011;53689;56.878;60.672;2024-01-10T06:09:20;78.65;;;28.27;;
62523;SDS011;53689;56.878;60.672;2024-01-10T06:14:16;125.95;;;29.40;;
62523;SDS011;53689;56.878;60.672;2024-01-10T06:16:44;84.68;;;29.63;;
62523;SDS011;53689;56.878;60.672;2024-01-10T06:19:12;66.25;;;26.95;;
62523;SDS011;53689;56.878;60.672;2024-01-10T06:21:42;64.28;;;25.10;;
62523;SDS011;53689;56.878;60.672;2024-01-10T06:24:10;66.03;;;24.90;;
62523;SDS011;53689;56.878;60.672;2024-01-10T06:26:43;58.65;;;28.30;;
62523;SDS011;53689;56.878;60.672;2024-01-10T06:29:11;56.55;;;24.00;;
62523;SDS011;53689;56.878;60.672;2024-01-10T06:31:38;55.15;;;24.75;;
62523;SDS011;53689;56.878;60.672;2024-01-10T06:34:07;53.30;;;24.40;;
62523;SDS011;53689;56.878;60.672;2024-01-10T06:36:35;61.53;;;27.50;;
62523;SDS011;53689;56.878;60.672;2024-01-10T06:39:03;74.60;;;31.17;;
62523;SDS011;53689;56.878;60.672;2024-01-10T06:41:31;63.53;;;30.10;;
62523;SDS011;53689;56.878;60.672;2024-01-10T06:44:01;63.75;;;30.65;;
62523;SDS011;53689;56.878;60.672;2024-01-10T06:48:57;75.82;;;36.20;;
62523;SDS011;53689;56.878;60.672;2024-01-10T06:51:25;78.25;;;35.15;;
62523;SDS011;53689;56.878;60.672;2024-01-10T06:53:53;67.40;;;30.48;;
62523;SDS011;53689;56.878;60.672;2024-01-10T06:56:21;71.13;;;35.00;;
62523;SDS011;53689;56.878;60.672;2024-01-10T06:58:49;131.95;;;41.13;;
62523;SDS011;53689;56.878;60.672;2024-01-10T07:01:18;127.28;;;41.80;;
62523;SDS011;53689;56.878;60.672;2024-01-10T07:03:46;88.30;;;35.83;;
62523;SDS011;53689;56.878;60.672;2024-01-10T07:06:14;94.32;;;37.97;;
62523;SDS011;53689;56.878;60.672;2024-01-10T07:08:43;88.68;;;37.65;;
62523;SDS011;53689;56.878;60.672;2024-01-10T07:11:14;91.57;;;39.37;;
62523;SDS011;53689;56.878;60.672;2024-01-10T07:13:42;105.35;;;41.58;;
62523;SDS011;53689;56.878;60.672;2024-01-10T07:16:11;108.05;;;42.83;;
62523;SDS011;53689;56.878;60.672;2024-01-10T07:18:41;111.45;;;44.75;;
62523;SDS011;53689;56.878;60.672;2024-01-10T07:21:09;118.32;;;44.45;;
62523;SDS011;53689;56.878;60.672;2024-01-10T07:23:36;121.80;;;45.80;;
62523;SDS011;53689;56.878;60.672;2024-01-10T07:26:04;144.70;;;49.58;;
62523;SDS011;53689;56.878;60.672;2024-01-10T07:28:33;186.48;;;59.50;;
62523;SDS011;53689;56.878;60.672;2024-01-10T07:31:00;163.48;;;55.22;;
62523;SDS011;53689;56.878;60.672;2024-01-10T07:33:32;154.27;;;52.83;;
62523;SDS011;53689;56.878;60.672;2024-01-10T07:36:02;157.07;;;54.10;;
62523;SDS011;53689;56.878;60.672;2024-01-10T07:38:30;178.50;;;58.83;;
62523;SDS011;53689;56.878;60.672;2024-01-10T07:40:58;170.65;;;57.75;;
62523;SDS011;53689;56.878;60.672;2024-01-10T07:43:26;172.27;;;56.97;;
62523;SDS011;53689;56.878;60.672;2024-01-10T07:45:55;176.77;;;59.42;;
62523;SDS011;53689;56.878;60.672;2024-01-10T07:48:22;168.43;;;56.28;;
62523;SDS011;53689;56.878;60.672;2024-01-10T07:50:51;169.57;;;54.53;;
62523;SDS011;53689;56.878;60.672;2024-01-10T07:53:20;200.50;;;63.20;;
62523;SDS011;53689;56.878;60.672;2024-01-10T07:55:48;179.23;;;59.65;;
62523;SDS011;53689;56.878;60.672;2024-01-10T07:58:15;173.68;;;59.10;;
62523;SDS011;53689;56.878;60.672;2024-01-10T08:00:43;177.63;;;58.70;;
62523;SDS011;53689;56.878;60.672;2024-01-10T08:03:12;177.30;;;62.05;;
62523;SDS011;53689;56.878;60.672;2024-01-10T08:05:40;178.00;;;60.95;;
62523;SDS011;53689;56.878;60.672;2024-01-10T08:08:08;137.75;;;48.83;;
62523;SDS011;53689;56.878;60.672;2024-01-10T08:10:38;164.32;;;52.17;;
62523;SDS011;53689;56.878;60.672;2024-01-10T08:13:05;145.35;;;48.78;;
62523;SDS011;53689;56.878;60.672;2024-01-10T08:15:33;166.32;;;56.92;;
62523;SDS011;53689;56.878;60.672;2024-01-10T08:18:02;140.60;;;49.55;;
62523;SDS011;53689;56.878;60.672;2024-01-10T08:20:30;160.90;;;57.25;;
62523;SDS011;53689;56.878;60.672;2024-01-10T08:22:58;167.88;;;58.45;;
62523;SDS011;53689;56.878;60.672;2024-01-10T08:25:26;166.15;;;57.83;;
62523;SDS011;53689;56.878;60.672;2024-01-10T08:27:56;127.55;;;46.67;;
62523;SDS011;53689;56.878;60.672;2024-01-10T08:32:52;167.38;;;61.03;;
62523;SDS011;53689;56.878;60.672;2024-01-10T08:35:20;166.55;;;61.75;;
62523;SDS011;53689;56.878;60.672;2024-01-10T08:37:52;165.07;;;60.47;;
62523;SDS011;53689;56.878;60.672;2024-01-10T08:40:20;162.77;;;58.53;;
62523;SDS011;53689;56.878;60.672;2024-01-10T08:42:48;168.38;;;57.67;;
62523;SDS011;53689;56.878;60.672;2024-01-10T08:45:17;161.73;;;59.25;;
62523;SDS011;53689;56.878;60.672;2024-01-10T08:47:45;150.07;;;57.13;;
62523;SDS011;53689;56.878;60.672;2024-01-10T08:50:13;167.23;;;58.15;;
62523;SDS011;53689;56.878;60.672;2024-01-10T08:52:41;150.88;;;57.10;;
62523;SDS011;53689;56.878;60.672;2024-01-10T08:55:09;153.45;;;55.53;;
62523;SDS011;53689;56.878;60.672;2024-01-10T08:57:40;150.88;;;55.38;;
62523;SDS011;53689;56.878;60.672;2024-01-10T09:00:08;157.95;;;56.53;;
62523;SDS011;53689;56.878;60.672;2024-01-10T09:02:38;159.68;;;59.35;;
62523;SDS011;53689;56.878;60.672;2024-01-10T09:05:07;145.60;;;51.72;;
62523;SDS011;53689;56.878;60.672;2024-01-10T09:07:35;158.52;;;57.78;;
62523;SDS011;53689;56.878;60.672;2024-01-10T09:10:04;162.35;;;55.20;;
62523;SDS011;53689;56.878;60.672;2024-01-10T09:12:32;149.82;;;55.33;;
62523;SDS011;53689;56.878;60.672;2024-01-10T09:15:00;163.10;;;59.50;;
62523;SDS011;53689;56.878;60.672;2024-01-10T09:17:28;155.68;;;59.60;;
62523;SDS011;53689;56.878;60.672;2024-01-10T09:19:57;150.73;;;55.33;;
62523;SDS011;53689;56.878;60.672;2024-01-10T09:22:25;161.43;;;58.47;;
62523;SDS011;53689;56.878;60.672;2024-01-10T09:24:53;153.63;;;58.25;;
62523;SDS011;53689;56.878;60.672;2024-01-10T09:27:21;146.23;;;56.47;;
62523;SDS011;53689;56.878;60.672;2024-01-10T09:29:49;144.00;;;54.28;;
62523;SDS011;53689;56.878;60.672;2024-01-10T09:32:16;147.95;;;58.42;;
62523;SDS011;53689;56.878;60.672;2024-01-10T09:34:44;155.93;;;56.72;;
62523;SDS011;53689;56.878;60.672;2024-01-10T09:37:14;158.27;;;65.65;;
62523;SDS011;53689;56.878;60.672;2024-01-10T09:39:42;155.88;;;58.17;;
62523;SDS011;53689;56.878;60.672;2024-01-10T09:42:10;149.85;;;59.45;;
62523;SDS011;53689;56.878;60.672;2024-01-10T09:44:38;145.88;;;59.42;;
62523;SDS011;53689;56.878;60.672;2024-01-10T09:47:05;150.63;;;57.75;;
62523;SDS011;53689;56.878;60.672;2024-01-10T09:49:33;161.52;;;58.00;;
62523;SDS011;53689;56.878;60.672;2024-01-10T09:52:03;142.07;;;55.30;;
62523;SDS011;53689;56.878;60.672;2024-01-10T09:54:33;136.73;;;52.65;;
62523;SDS011;53689;56.878;60.672;2024-01-10T09:57:05;149.75;;;59.60;;
62523;SDS011;53689;56.878;60.672;2024-01-10T09:59:33;147.50;;;58.30;;
62523;SDS011;53689;56.878;60.672;2024-01-10T10:02:01;142.80;;;56.08;;
62523;SDS011;53689;56.878;60.672;2024-01-10T10:04:30;158.20;;;58.17;;
62523;SDS011;53689;56.878;60.672;2024-01-10T10:06:58;147.75;;;58.10;;
62523;SDS011;53689;56.878;60.672;2024-01-10T10:09:26;132.63;;;54.33;;
62523;SDS011;53689;56.878;60.672;2024-01-10T10:11:57;152.75;;;55.90;;
62523;SDS011;53689;56.878;60.672;2024-01-10T10:14:26;141.30;;;54.08;;
62523;SDS011;53689;56.878;60.672;2024-01-10T10:16:56;140.25;;;53.90;;
62523;SDS011;53689;56.878;60.672;2024-01-10T10:19:41;133.73;;;53.78;;
62523;SDS011;53689;56.878;60.672;2024-01-10T10:22:09;137.43;;;53.38;;
62523;SDS011;53689;56.878;60.672;2024-01-10T10:24:38;120.17;;;50.63;;
62523;SDS011;53689;56.878;60.672;2024-01-10T10:27:12;115.70;;;48.47;;
62523;SDS011;53689;56.878;60.672;2024-01-10T10:29:40;125.65;;;51.85;;
62523;SDS011;53689;56.878;60.672;2024-01-10T10:32:12;118.93;;;48.95;;
62523;SDS011;53689;56.878;60.672;2024-01-10T10:34:41;124.93;;;48.83;;
62523;SDS011;53689;56.878;60.672;2024-01-10T10:37:08;106.38;;;46.67;;
62523;SDS011;53689;56.878;60.672;2024-01-10T10:39:37;112.05;;;47.45;;
62523;SDS011;53689;56.878;60.672;2024-01-10T10:42:06;119.05;;;47.03;;
62523;SDS011;53689;56.878;60.672;2024-01-10T10:44:36;107.15;;;45.88;;
62523;SDS011;53689;56.878;60.672;2024-01-10T10:47:07;115.68;;;47.00;;
62523;SDS011;53689;56.878;60.672;2024-01-10T10:49:41;108.63;;;47.00;;
62523;SDS011;53689;56.878;60.672;2024-01-10T10:52:14;105.38;;;47.28;;
62523;SDS011;53689;56.878;60.672;2024-01-10T10:54:43;108.72;;;47.38;;
62523;SDS011;53689;56.878;60.672;2024-01-10T10:57:13;113.45;;;48.08;;
62523;SDS011;53689;56.878;60.672;2024-01-10T11:00:49;105.47;;;49.17;;
62523;SDS011;53689;56.878;60.672;2024-01-10T11:03:18;106.95;;;45.70;;
62523;SDS011;53689;56.878;60.672;2024-01-10T11:05:47;113.07;;;48.25;;
62523;SDS011;53689;56.878;60.672;2024-01-10T11:08:18;111.57;;;48.78;;
62523;SDS011;53689;56.878;60.672;2024-01-10T11:10:48;101.97;;;44.00;;
62523;SDS011;53689;56.878;60.672;2024-01-10T11:13:28;109.78;;;45.00;;
62523;SDS011;53689;56.878;60.672;2024-01-10T11:19:14;104.97;;;45.33;;
62523;SDS011;53689;56.878;60.672;2024-01-10T11:22:05;125.40;;;46.70;;
62523;SDS011;53689;56.878;60.672;2024-01-10T11:24:44;132.73;;;48.63;;
62523;SDS011;53689;56.878;60.672;2024-01-10T11:27:12;125.85;;;46.35;;
62523;SDS011;53689;56.878;60.672;2024-01-10T11:29:42;107.88;;;45.05;;
62523;SDS011;53689;56.878;60.672;2024-01-10T11:32:14;106.38;;;43.72;;
62523;SDS011;53689;56.878;60.672;2024-01-10T11:34:56;109.32;;;45.88;;
62523;SDS011;53689;56.878;60.672;2024-01-10T11:37:27;104.45;;;43.92;;
62523;SDS011;53689;56.878;60.672;2024-01-10T11:39:56;101.68;;;43.30;;
62523;SDS011;53689;56.878;60.672;2024-01-10T11:42:28;92.40;;;41.17;;
62523;SDS011;53689;56.878;60.672;2024-01-10T11:45:09;77.88;;;36.90;;
62523;SDS011;53689;56.878;60.672;2024-01-10T11:47:39;85.55;;;37.92;;
62523;SDS011;53689;56.878;60.672;2024-01-10T11:50:07;89.40;;;36.58;;
62523;SDS011;53689;56.878;60.672;2024-01-10T11:52:36;87.18;;;36.88;;
62523;SDS011;53689;56.878;60.672;2024-01-10T11:55:04;85.93;;;38.17;;
62523;SDS011;53689;56.878;60.672;2024-01-10T11:57:33;79.75;;;35.92;;
62523;SDS011;53689;56.878;60.672;2024-01-10T12:00:02;77.97;;;35.33;;
62523;SDS011;53689;56.878;60.672;2024-01-10T12:02:30;68.20;;;32.47;;
62523;SDS011;53689;56.878;60.672;2024-01-10T12:05:00;77.97;;;35.63;;
62523;SDS011;53689;56.878;60.672;2024-01-10T12:07:28;72.85;;;33.72;;
62523;SDS011;53689;56.878;60.672;2024-01-10T12:09:56;72.13;;;32.97;;
62523;SDS011;53689;56.878;60.672;2024-01-10T12:12:24;69.50;;;34.17;;
62523;SDS011;53689;56.878;60.672;2024-01-10T12:14:52;69.13;;;31.23;;
62523;SDS011;53689;56.878;60.672;2024-01-10T12:17:20;67.90;;;32.45;;
62523;SDS011;53689;56.878;60.672;2024-01-10T12:19:48;64.43;;;31.23;;
62523;SDS011;53689;56.878;60.672;2024-01-10T12:22:17;60.78;;;29.30;;
62523;SDS011;53689;56.878;60.672;2024-01-10T12:24:47;70.22;;;32.72;;
62523;SDS011;53689;56.878;60.672;2024-01-10T12:27:16;57.17;;;30.30;;
62523;SDS011;53689;56.878;60.672;2024-01-10T12:29:47;60.83;;;30.33;;
62523;SDS011;53689;56.878;60.672;2024-01-10T12:32:17;60.72;;;27.25;;
62523;SDS011;53689;56.878;60.672;2024-01-10T12:34:45;57.95;;;28.92;;
62523;SDS011;53689;56.878;60.672;2024-01-10T12:37:13;53.70;;;28.33;;
62523;SDS011;53689;56.878;60.672;2024-01-10T12:39:42;51.17;;;26.10;;
62523;SDS011;53689;56.878;60.672;2024-01-10T12:42:10;47.30;;;26.60;;
62523;SDS011;53689;56.878;60.672;2024-01-10T12:44:40;56.05;;;29.25;;
62523;SDS011;53689;56.878;60.672;2024-01-10T12:47:17;52.08;;;27.60;;
62523;SDS011;53689;56.878;60.672;2024-01-10T12:49:45;55.72;;;25.85;;
62523;SDS011;53689;56.878;60.672;2024-01-10T12:52:13;48.53;;;23.95;;
62523;SDS011;53689;56.878;60.672;2024-01-10T12:54:47;44.75;;;22.15;;
62523;SDS011;53689;56.878;60.672;2024-01-10T12:57:15;44.30;;;22.45;;
62523;SDS011;53689;56.878;60.672;2024-01-10T12:59:44;50.25;;;23.92;;
62523;SDS011;53689;56.878;60.672;2024-01-10T13:02:11;39.50;;;20.23;;
62523;SDS011;53689;56.878;60.672;2024-01-10T13:04:39;47.20;;;24.58;;
62523;SDS011;53689;56.878;60.672;2024-01-10T13:07:08;48.70;;;22.63;;
62523;SDS011;53689;56.878;60.672;2024-01-10T13:09:36;44.40;;;22.60;;
62523;SDS011;53689;56.878;60.672;2024-01-10T13:12:06;47.25;;;23.50;;
62523;SDS011;53689;56.878;60.672;2024-01-10T13:14:35;38.53;;;22.65;;
62523;SDS011;53689;56.878;60.672;2024-01-10T13:17:03;41.97;;;19.60;;
62523;SDS011;53689;56.878;60.672;2024-01-10T13:19:31;39.85;;;19.30;;
62523;SDS011;53689;56.878;60.672;2024-01-10T13:21:59;35.65;;;18.30;;
62523;SDS011;53689;56.878;60.672;2024-01-10T13:24:29;41.90;;;20.55;;
62523;SDS011;53689;56.878;60.672;2024-01-10T13:26:57;40.63;;;20.02;;
62523;SDS011;53689;56.878;60.672;2024-01-10T13:29:26;33.55;;;18.05;;
62523;SDS011;53689;56.878;60.672;2024-01-10T13:31:54;36.83;;;18.67;;
62523;SDS011;53689;56.878;60.672;2024-01-10T13:34:22;41.28;;;19.60;;
62523;SDS011;53689;56.878;60.672;2024-01-10T13:36:50;35.53;;;19.70;;
62523;SDS011;53689;56.878;60.672;2024-01-10T13:39:18;35.97;;;17.98;;
62523;SDS011;53689;56.878;60.672;2024-01-10T13:41:46;34.53;;;17.98;;
62523;SDS011;53689;56.878;60.672;2024-01-10T13:44:14;31.83;;;17.92;;
62523;SDS011;53689;56.878;60.672;2024-01-10T13:46:43;36.83;;;18.13;;
62523;SDS011;53689;56.878;60.672;2024-01-10T13:49:11;33.60;;;16.73;;
62523;SDS011;53689;56.878;60.672;2024-01-10T13:51:39;32.17;;;16.77;;
62523;SDS011;53689;56.878;60.672;2024-01-10T13:54:08;31.98;;;16.13;;
62523;SDS011;53689;56.878;60.672;2024-01-10T13:56:36;32.65;;;15.00;;
62523;SDS011;53689;56.878;60.672;2024-01-10T13:59:05;28.55;;;13.82;;
62523;SDS011;53689;56.878;60.672;2024-01-10T14:01:32;30.73;;;14.25;;
62523;SDS011;53689;56.878;60.672;2024-01-10T14:04:02;27.40;;;14.13;;
62523;SDS011;53689;56.878;60.672;2024-01-10T14:06:29;30.92;;;17.13;;
62523;SDS011;53689;56.878;60.672;2024-01-10T14:08:57;31.35;;;15.52;;
62523;SDS011;53689;56.878;60.672;2024-01-10T14:11:25;33.50;;;15.68;;
62523;SDS011;53689;56.878;60.672;2024-01-10T14:13:53;32.17;;;15.63;;
62523;SDS011;53689;56.878;60.672;2024-01-10T14:16:21;29.50;;;16.17;;
62523;SDS011;53689;56.878;60.672;2024-01-10T14:18:49;26.48;;;14.90;;
62523;SDS011;53689;56.878;60.672;2024-01-10T14:21:19;26.58;;;14.65;;
62523;SDS011;53689;56.878;60.672;2024-01-10T14:23:47;27.48;;;14.35;;
62523;SDS011;53689;56.878;60.672;2024-01-10T14:26:15;26.90;;;14.68;;
62523;SDS011;53689;56.878;60.672;2024-01-10T14:28:43;31.92;;;16.05;;
62523;SDS011;53689;56.878;60.672;2024-01-10T14:31:11;28.13;;;15.15;;
62523;SDS011;53689;56.878;60.672;2024-01-10T14:33:54;27.02;;;14.73;;